Terminal Aerodrome Forecast
Issued by NWS

Home | Current Version | Previous Version | Text Only | Print | Product List | Glossary On
Versions: 1 2 3 4 5 6 7 8 9 10 11 12 13 14 15 16 17 18 19 20 21 22 23 24 25 26 27 28 29 30 31 32 33 34 35 36 37 38 39
000
FTUS42 KJAX 280852 AAB
TAFCRG
TAF AMD
KCRG 280852Z 2809/2906 07009KT P6SM VCSH SCT015 BKN035 OVC070
      TEMPO 2809/2813 5SM -SHRA BR BKN015
     FM281300 08010G15KT 5SM -SHRA SCT015 BKN025 OVC060
     FM281600 09012G20KT P6SM VCSH SCT030 BKN060 OVC200
     FM290300 12008KT P6SM VCSH SCT020 SCT060 BKN200=

USA.gov is the U.S. government's official web portal to all federal, state and local government web resources and services.